Time;durP1;ratioP1;P1;durP2;ratioP2;P2;SDS_P1;SDS_P2;PMS_P1;PMS_P2;Temp;Humidity;BMP_temperature;BMP_pressure;BME280_temperature;BME280_humidity;BME280_pressure;Samples;Min_cycle;Max_cycle;Signal;HPM_P1;HPM_P2
2021/05/02 00:01:55;;;;;;;0.45;0.45;;;21.60;46.80;;;;;;5090043;28;20036;-40
2021/05/02 00:04:21;;;;;;;0.70;0.70;;;21.70;46.60;;;;;;5099410;28;20119;-40
2021/05/02 00:06:47;;;;;;;0.70;0.70;;;21.70;46.70;;;;;;5096662;28;20078;-41
2021/05/02 00:09:12;;;;;;;1.73;0.73;;;21.50;46.90;;;;;;5082930;28;20410;-41
2021/05/02 00:11:38;;;;;;;0.68;0.68;;;21.50;47.10;;;;;;5095490;28;20019;-40
2021/05/02 00:14:03;;;;;;;0.80;0.80;;;21.50;46.70;;;;;;5099363;28;20019;-40
2021/05/02 00:16:29;;;;;;;0.60;0.60;;;21.50;46.90;;;;;;5074368;28;20032;-40
2021/05/02 00:18:55;;;;;;;1.98;0.70;;;21.60;46.80;;;;;;5101788;28;20016;-39
2021/05/02 00:21:20;;;;;;;0.70;0.70;;;21.60;46.60;;;;;;5096262;28;20581;-40
2021/05/02 00:23:46;;;;;;;0.70;0.70;;;21.50;46.60;;;;;;5079010;28;20032;-40
2021/05/02 00:26:12;;;;;;;0.73;0.73;;;21.60;46.60;;;;;;5083541;28;20035;-41
2021/05/02 00:28:49;;;;;;;0.75;0.75;;;21.60;46.50;;;;;;5085698;28;20065;-41
2021/05/02 00:31:15;;;;;;;0.43;0.43;;;21.60;46.50;;;;;;5105459;28;20024;-41
2021/05/02 00:33:40;;;;;;;0.60;0.60;;;21.60;46.50;;;;;;5078699;28;20126;-40
2021/05/02 00:36:06;;;;;;;0.80;0.60;;;21.50;46.70;;;;;;5097683;28;20508;-41
2021/05/02 00:38:37;;;;;;;0.73;0.50;;;21.50;46.70;;;;;;5084351;28;20078;-40
2021/05/02 00:41:09;;;;;;;0.75;0.60;;;21.60;46.40;;;;;;5097378;28;20114;-40
2021/05/02 00:43:54;;;;;;;0.60;0.60;;;21.60;46.40;;;;;;5095042;28;20477;-41
2021/05/02 00:46:24;;;;;;;0.77;0.63;;;21.70;46.30;;;;;;5105497;28;20032;-41
2021/05/02 00:49:01;;;;;;;0.70;0.70;;;21.70;46.90;;;;;;5076849;28;20051;-42
2021/05/02 00:51:26;;;;;;;2.53;0.70;;;21.70;46.80;;;;;;5081285;28;20451;-41
2021/05/02 00:54:06;;;;;;;0.60;0.60;;;21.70;46.10;;;;;;5078481;28;20008;-40
2021/05/02 00:56:38;;;;;;;1.52;0.60;;;21.70;46.10;;;;;;5085701;28;20162;-40
2021/05/02 00:59:05;;;;;;;0.65;0.65;;;21.70;46.90;;;;;;5104475;28;20141;-40
2021/05/02 01:01:43;;;;;;;0.50;0.50;;;21.60;46.20;;;;;;5097737;28;20044;-40
2021/05/02 01:04:10;;;;;;;0.70;0.70;;;21.70;46.00;;;;;;5098920;28;20047;-40
2021/05/02 01:06:36;;;;;;;0.68;0.68;;;21.70;46.00;;;;;;5097982;28;20065;-42
2021/05/02 01:09:02;;;;;;;0.65;0.65;;;21.70;46.10;;;;;;5083919;28;20103;-39
2021/05/02 01:11:28;;;;;;;0.82;0.70;;;21.80;45.90;;;;;;5110037;28;20028;-41
2021/05/02 01:13:59;;;;;;;0.60;0.60;;;21.80;45.80;;;;;;5100516;28;20024;-39
2021/05/02 01:16:29;;;;;;;0.60;0.60;;;21.90;45.70;;;;;;5082722;28;20549;-40
2021/05/02 01:18:56;;;;;;;0.50;0.50;;;21.90;45.50;;;;;;5103804;28;20028;-40
2021/05/02 01:21:29;;;;;;;0.75;0.60;;;21.70;46.60;;;;;;5083792;28;20899;-42
2021/05/02 01:23:56;;;;;;;1.02;0.60;;;21.70;45.90;;;;;;5085529;28;20036;-40
2021/05/02 01:26:21;;;;;;;0.70;0.70;;;21.70;45.90;;;;;;5083330;28;20592;-44
2021/05/02 01:28:47;;;;;;;0.40;0.40;;;21.80;45.80;;;;;;5078226;28;20107;-42
2021/05/02 01:31:12;;;;;;;1.30;0.63;;;21.80;45.80;;;;;;5076027;28;20084;-41
2021/05/02 01:33:39;;;;;;;0.57;0.57;;;21.80;45.80;;;;;;5104188;28;20031;-41
2021/05/02 01:36:05;;;;;;;0.60;0.60;;;21.80;46.00;;;;;;5086730;28;20116;-40
2021/05/02 01:38:31;;;;;;;0.50;0.50;;;21.80;45.70;;;;;;5100016;28;20119;-38
2021/05/02 01:40:58;;;;;;;0.63;0.63;;;21.80;45.60;;;;;;5090770;28;20035;-40
2021/05/02 01:43:24;;;;;;;0.70;0.70;;;21.80;45.60;;;;;;5099447;28;20011;-42
2021/05/02 01:45:50;;;;;;;0.45;0.45;;;21.80;46.30;;;;;;5100732;28;20117;-42
2021/05/02 01:48:17;;;;;;;0.40;0.40;;;21.80;45.50;;;;;;5104565;28;20055;-41
2021/05/02 01:51:02;;;;;;;0.50;0.50;;;21.90;45.50;;;;;;5104521;28;20055;-40
2021/05/02 01:53:28;;;;;;;0.60;0.60;;;21.80;45.60;;;;;;5104063;28;20111;-42
2021/05/02 01:55:54;;;;;;;0.70;0.70;;;21.80;46.20;;;;;;5100652;28;20016;-38
2021/05/02 01:58:20;;;;;;;0.90;0.50;;;22.00;45.40;;;;;;5083856;28;20038;-43
2021/05/02 02:00:55;;;;;;;0.50;0.50;;;21.90;45.50;;;;;;5082485;28;20032;-40
2021/05/02 02:03:21;;;;;;;0.40;0.40;;;21.80;45.40;;;;;;5098257;28;20494;-40
2021/05/02 02:05:47;;;;;;;0.60;0.60;;;21.90;45.40;;;;;;5102437;28;20023;-42
2021/05/02 02:08:12;;;;;;;0.60;0.60;;;21.90;45.30;;;;;;5095006;28;20046;-41
2021/05/02 02:10:38;;;;;;;0.50;0.50;;;21.80;45.70;;;;;;5102610;28;20401;-42
2021/05/02 02:13:04;;;;;;;0.60;0.60;;;21.80;45.60;;;;;;5097041;28;20046;-43
2021/05/02 02:15:30;;;;;;;0.57;0.57;;;21.80;46.30;;;;;;5103718;28;20056;-42
2021/05/02 02:17:55;;;;;;;0.60;0.60;;;21.80;45.40;;;;;;5103545;28;20020;-40
2021/05/02 02:20:25;;;;;;;1.38;0.57;;;21.90;45.30;;;;;;5095818;28;20110;-43
2021/05/02 02:22:54;;;;;;;0.60;0.60;;;21.70;45.60;;;;;;5101989;28;20031;-43
2021/05/02 02:25:19;;;;;;;0.50;0.50;;;21.80;45.70;;;;;;5096996;28;20028;-43
2021/05/02 02:27:45;;;;;;;2.45;0.52;;;21.70;45.80;;;;;;5069726;28;20470;-42
2021/05/02 02:30:12;;;;;;;0.55;0.55;;;21.80;45.60;;;;;;5083013;28;20039;-42
2021/05/02 02:32:46;;;;;;;0.50;0.50;;;21.80;45.60;;;;;;5095532;28;20114;-40
2021/05/02 02:35:13;;;;;;;0.50;0.50;;;21.80;45.40;;;;;;5102244;28;20028;-39
2021/05/02 02:37:39;;;;;;;0.57;0.57;;;21.80;45.40;;;;;;5083101;28;20456;-42
2021/05/02 02:40:05;;;;;;;0.47;0.47;;;21.90;45.30;;;;;;5072910;28;20077;-41
2021/05/02 02:42:31;;;;;;;0.65;0.65;;;21.90;45.30;;;;;;5099201;28;20065;-42
2021/05/02 02:44:58;;;;;;;0.50;0.50;;;21.90;45.30;;;;;;5085807;28;20028;-42
2021/05/02 02:47:25;;;;;;;0.55;0.55;;;21.80;45.40;;;;;;5099691;28;20024;-41
2021/05/02 02:49:54;;;;;;;0.60;0.60;;;21.80;45.50;;;;;;5076787;28;20077;-39
2021/05/02 02:52:20;;;;;;;0.70;0.70;;;21.80;45.50;;;;;;5104318;28;20050;-43
2021/05/02 02:54:49;;;;;;;0.40;0.40;;;21.70;45.60;;;;;;5098928;28;20036;-42
2021/05/02 02:57:19;;;;;;;0.50;0.50;;;21.80;45.60;;;;;;5079269;28;20035;-39
2021/05/02 02:59:46;;;;;;;0.50;0.50;;;21.90;45.40;;;;;;5082022;28;20437;-40
2021/05/02 03:02:12;;;;;;;0.60;0.60;;;21.70;45.60;;;;;;5068301;28;20035;-38
2021/05/02 03:04:39;;;;;;;0.30;0.30;;;21.60;45.90;;;;;;5081118;28;20097;-41
2021/05/02 03:07:04;;;;;;;0.60;0.60;;;21.70;45.80;;;;;;5086134;28;20024;-45
2021/05/02 03:09:30;;;;;;;0.50;0.50;;;21.70;45.60;;;;;;5102662;28;20032;-42
2021/05/02 03:11:56;;;;;;;0.43;0.43;;;21.60;45.70;;;;;;5066947;28;20107;-43
2021/05/02 03:14:21;;;;;;;0.47;0.47;;;21.70;45.60;;;;;;5083243;28;20039;-40
2021/05/02 03:16:48;;;;;;;0.60;0.60;;;21.80;45.60;;;;;;5080547;28;20032;-41
2021/05/02 03:19:26;;;;;;;0.50;0.50;;;21.70;45.60;;;;;;5096635;28;20027;-40
2021/05/02 03:22:13;;;;;;;0.57;0.57;;;21.70;45.50;;;;;;5101808;28;20055;-38
2021/05/02 03:24:41;;;;;;;0.60;0.60;;;21.70;45.70;;;;;;5068730;28;20032;-41
2021/05/02 03:27:22;;;;;;;0.55;0.55;;;21.70;45.60;;;;;;5101103;28;20024;-40
2021/05/02 03:29:48;;;;;;;0.45;0.45;;;21.70;46.30;;;;;;5079296;28;20028;-39
2021/05/02 03:32:13;;;;;;;0.50;0.50;;;21.70;45.60;;;;;;5078452;28;20151;-41
2021/05/02 03:34:41;;;;;;;0.60;0.60;;;21.80;45.50;;;;;;5081407;28;20028;-40
2021/05/02 03:37:11;;;;;;;0.50;0.50;;;21.70;45.50;;;;;;5102779;28;20048;-40
2021/05/02 03:39:37;;;;;;;0.70;0.70;;;21.70;45.50;;;;;;5096851;28;20418;-41
2021/05/02 03:42:03;;;;;;;0.52;0.52;;;21.80;45.40;;;;;;5099095;28;20065;-41
2021/05/02 03:44:28;;;;;;;0.50;0.50;;;21.70;45.40;;;;;;5064007;28;20031;-40
2021/05/02 03:46:54;;;;;;;0.50;0.50;;;21.80;45.20;;;;;;5096983;28;20020;-38
2021/05/02 03:49:19;;;;;;;0.50;0.50;;;21.80;45.20;;;;;;5108006;28;20036;-40
2021/05/02 03:51:45;;;;;;;0.50;0.50;;;21.80;45.20;;;;;;5099688;28;20082;-41
2021/05/02 03:54:11;;;;;;;0.40;0.40;;;21.80;45.30;;;;;;5095320;28;20070;-40
2021/05/02 03:56:43;;;;;;;0.60;0.60;;;21.80;45.20;;;;;;5101620;28;20020;-40
2021/05/02 03:59:13;;;;;;;0.63;0.63;;;21.80;45.30;;;;;;5096439;28;20465;-41
2021/05/02 04:02:02;;;;;;;0.52;0.52;;;21.80;45.20;;;;;;5085843;28;20431;-40
2021/05/02 04:04:29;;;;;;;0.47;0.47;;;21.80;45.40;;;;;;5079465;28;20024;-41
2021/05/02 04:07:10;;;;;;;0.50;0.50;;;21.70;45.90;;;;;;5107081;28;20036;-41
2021/05/02 04:09:36;;;;;;;0.50;0.50;;;21.70;45.40;;;;;;5101834;28;20414;-38
2021/05/02 04:12:05;;;;;;;0.70;0.60;;;21.70;45.40;;;;;;5096527;28;20027;-41
2021/05/02 04:14:31;;;;;;;0.57;0.57;;;21.80;45.30;;;;;;5104600;28;20401;-40
2021/05/02 04:16:58;;;;;;;0.70;0.70;;;21.70;45.40;;;;;;5104923;28;20484;-42
2021/05/02 04:19:24;;;;;;;0.40;0.40;;;21.60;45.60;;;;;;5101263;28;20111;-40
2021/05/02 04:21:49;;;;;;;0.60;0.60;;;21.60;45.50;;;;;;5101623;28;20122;-40
2021/05/02 04:24:15;;;;;;;0.60;0.60;;;21.60;45.60;;;;;;5080527;28;20028;-40
2021/05/02 04:26:44;;;;;;;0.57;0.57;;;21.70;45.50;;;;;;5093896;28;20627;-40
2021/05/02 04:29:10;;;;;;;0.60;0.60;;;21.70;45.30;;;;;;5079959;28;20067;-40
2021/05/02 04:31:36;;;;;;;0.50;0.50;;;21.70;45.40;;;;;;5100481;28;20051;-41
2021/05/02 04:34:02;;;;;;;0.60;0.60;;;21.60;45.60;;;;;;5105132;28;20035;-42
2021/05/02 04:36:28;;;;;;;0.60;0.60;;;21.60;45.60;;;;;;5101817;28;20027;-43
2021/05/02 04:38:53;;;;;;;0.50;0.50;;;21.60;45.70;;;;;;5102480;28;20040;-40
2021/05/02 04:41:19;;;;;;;0.40;0.40;;;21.60;45.50;;;;;;5105110;28;20035;-37
2021/05/02 04:43:44;;;;;;;0.63;0.63;;;21.60;45.50;;;;;;5098442;28;20024;-40
2021/05/02 04:46:11;;;;;;;0.50;0.50;;;21.60;45.50;;;;;;5103054;28;20462;-40
2021/05/02 04:48:39;;;;;;;0.60;0.60;;;21.60;45.40;;;;;;5102709;28;20028;-38
2021/05/02 04:51:04;;;;;;;0.52;0.52;;;21.70;45.30;;;;;;5087643;28;20555;-41
2021/05/02 04:53:31;;;;;;;0.47;0.47;;;21.60;45.50;;;;;;5101957;28;20119;-40
2021/05/02 04:55:56;;;;;;;0.40;0.40;;;21.60;45.60;;;;;;5109502;28;20058;-40
2021/05/02 04:58:22;;;;;;;0.50;0.50;;;21.60;45.50;;;;;;5103955;28;20051;-39
2021/05/02 05:00:48;;;;;;;0.60;0.60;;;21.60;45.60;;;;;;5105838;28;20032;-40
2021/05/02 05:03:13;;;;;;;0.60;0.60;;;21.60;45.50;;;;;;5101569;28;20494;-40
2021/05/02 05:05:39;;;;;;;0.60;0.60;;;21.60;45.40;;;;;;5109300;28;20027;-40
2021/05/02 05:08:05;;;;;;;0.50;0.50;;;21.50;46.20;;;;;;5097002;28;20059;-40
2021/05/02 05:10:30;;;;;;;0.80;0.80;;;21.60;45.50;;;;;;5085713;28;20024;-41
2021/05/02 05:12:56;;;;;;;0.50;0.50;;;21.60;45.50;;;;;;5100089;28;20032;-40
2021/05/02 05:15:21;;;;;;;0.57;0.57;;;21.50;45.60;;;;;;5107112;28;20110;-40
2021/05/02 05:17:47;;;;;;;0.50;0.50;;;21.60;45.50;;;;;;5106978;28;20035;-40
2021/05/02 05:20:13;;;;;;;0.60;0.60;;;21.60;46.10;;;;;;5088395;28;20490;-40
2021/05/02 05:22:38;;;;;;;0.50;0.50;;;21.60;45.50;;;;;;5102796;28;20466;-38
2021/05/02 05:25:05;;;;;;;0.50;0.50;;;21.60;46.00;;;;;;5106999;28;20062;-39
2021/05/02 05:27:30;;;;;;;0.47;0.47;;;21.50;45.50;;;;;;5099417;28;20077;-40
2021/05/02 05:29:56;;;;;;;0.60;0.60;;;21.50;45.40;;;;;;5081959;28;20107;-40
2021/05/02 05:32:21;;;;;;;0.60;0.60;;;21.50;45.60;;;;;;5098587;28;20012;-41
2021/05/02 05:34:47;;;;;;;0.57;0.57;;;21.40;45.70;;;;;;5102030;28;20040;-42
2021/05/02 05:37:12;;;;;;;0.60;0.60;;;21.40;45.80;;;;;;5101561;28;20044;-40
2021/05/02 05:39:38;;;;;;;0.68;0.68;;;21.50;45.70;;;;;;5098008;28;20059;-40
2021/05/02 05:42:05;;;;;;;0.70;0.70;;;21.50;45.60;;;;;;5098227;28;20162;-40
2021/05/02 05:44:30;;;;;;;0.60;0.60;;;21.50;45.60;;;;;;5083712;28;20052;-40
2021/05/02 05:46:56;;;;;;;0.60;0.60;;;21.40;45.80;;;;;;5088808;28;20064;-41
2021/05/02 05:49:22;;;;;;;0.70;0.70;;;21.40;45.70;;;;;;5104775;28;20031;-39
2021/05/02 05:51:50;;;;;;;0.60;0.60;;;21.50;45.60;;;;;;5103642;28;20028;-41
2021/05/02 05:54:15;;;;;;;0.50;0.50;;;21.50;45.50;;;;;;5098634;28;20707;-41
2021/05/02 05:56:41;;;;;;;0.52;0.52;;;21.50;46.30;;;;;;5100825;28;20027;-42
2021/05/02 05:59:06;;;;;;;0.50;0.50;;;21.50;47.50;;;;;;5104878;28;20462;-40
2021/05/02 06:01:32;;;;;;;0.73;0.50;;;21.70;46.60;;;;;;5101997;28;20039;-41
2021/05/02 06:03:58;;;;;;;0.40;0.40;;;21.60;46.90;;;;;;5104529;28;20484;-41
2021/05/02 06:06:24;;;;;;;0.55;0.55;;;21.70;46.50;;;;;;5104520;28;20065;-39
2021/05/02 06:08:50;;;;;;;0.60;0.60;;;21.70;46.00;;;;;;5093910;28;20031;-39
2021/05/02 06:11:15;;;;;;;0.45;0.45;;;21.80;45.80;;;;;;5102984;28;20032;-42
2021/05/02 06:13:41;;;;;;;0.70;0.70;;;21.80;45.70;;;;;;5102512;28;20105;-41
2021/05/02 06:16:07;;;;;;;0.75;0.75;;;21.80;45.60;;;;;;5104410;28;20491;-40
2021/05/02 06:18:32;;;;;;;0.60;0.60;;;21.80;45.50;;;;;;5100119;28;20032;-41
2021/05/02 06:20:58;;;;;;;0.70;0.70;;;21.80;45.50;;;;;;5097591;28;20043;-42
2021/05/02 06:23:23;;;;;;;0.80;0.80;;;21.80;45.50;;;;;;5102190;28;20015;-41
2021/05/02 06:25:49;;;;;;;0.90;0.90;;;21.90;45.60;;;;;;5101335;28;20032;-40
2021/05/02 06:28:15;;;;;;;0.93;0.93;;;21.90;46.20;;;;;;5099611;28;20030;-43
2021/05/02 06:30:40;;;;;;;1.00;1.00;;;21.90;45.50;;;;;;5101311;28;20508;-41
2021/05/02 06:33:06;;;;;;;0.80;0.80;;;21.80;45.50;;;;;;5101858;28;20080;-39
2021/05/02 06:35:31;;;;;;;0.98;0.98;;;21.80;45.50;;;;;;5103452;28;20035;-43
2021/05/02 06:37:57;;;;;;;0.90;0.90;;;21.80;45.50;;;;;;5082481;28;20043;-42
2021/05/02 06:40:22;;;;;;;0.85;0.85;;;21.80;45.50;;;;;;5105294;28;20401;-40
2021/05/02 06:42:48;;;;;;;1.00;1.00;;;21.80;46.20;;;;;;5098091;28;20040;-44
2021/05/02 06:45:14;;;;;;;1.20;1.20;;;21.80;45.50;;;;;;5101917;28;20035;-42
2021/05/02 06:47:40;;;;;;;1.00;1.00;;;21.80;46.10;;;;;;5098778;28;20039;-40
2021/05/02 06:50:05;;;;;;;1.20;1.20;;;21.80;45.50;;;;;;5095196;28;20032;-42
2021/05/02 06:52:31;;;;;;;0.93;0.93;;;21.80;45.50;;;;;;5091306;28;20023;-43
2021/05/02 06:54:57;;;;;;;1.33;1.30;;;21.70;45.50;;;;;;5103858;28;20031;-42
2021/05/02 06:57:22;;;;;;;1.45;1.35;;;21.70;45.50;;;;;;5095288;28;20024;-42
2021/05/02 06:59:48;;;;;;;3.15;1.17;;;21.70;46.20;;;;;;5098131;28;20516;-41
2021/05/02 07:02:13;;;;;;;1.20;1.20;;;21.70;46.20;;;;;;5079103;28;20040;-41
2021/05/02 07:04:39;;;;;;;1.27;1.27;;;21.70;45.60;;;;;;5101879;28;20028;-40
2021/05/02 07:07:05;;;;;;;1.30;1.20;;;21.70;45.50;;;;;;5100557;28;20493;-41
2021/05/02 07:09:31;;;;;;;1.10;1.10;;;21.70;45.50;;;;;;5077798;28;20401;-41
2021/05/02 07:11:57;;;;;;;1.25;1.25;;;21.70;45.40;;;;;;5095564;28;20028;-42
2021/05/02 07:14:22;;;;;;;1.20;1.20;;;21.70;45.40;;;;;;5098833;28;20028;-41
2021/05/02 07:16:48;;;;;;;1.60;1.58;;;21.70;46.00;;;;;;5105944;28;20032;-41
2021/05/02 07:19:14;;;;;;;1.10;1.10;;;21.80;45.30;;;;;;5101005;28;20064;-42
2021/05/02 07:21:40;;;;;;;1.20;1.20;;;21.80;45.20;;;;;;5074488;28;20402;-42
2021/05/02 07:24:06;;;;;;;1.27;1.27;;;21.80;45.30;;;;;;5097584;28;20023;-44
2021/05/02 07:26:32;;;;;;;1.35;1.25;;;21.80;45.20;;;;;;5100944;28;20036;-41
2021/05/02 07:28:57;;;;;;;1.30;1.30;;;21.70;45.30;;;;;;5103553;28;20030;-41
2021/05/02 07:31:23;;;;;;;2.40;1.05;;;21.80;45.30;;;;;;5077716;28;20440;-41
2021/05/02 07:33:49;;;;;;;1.70;1.02;;;21.80;45.30;;;;;;5093776;28;20122;-41
2021/05/02 07:36:14;;;;;;;1.55;1.45;;;21.70;45.40;;;;;;5083639;28;20125;-41
2021/05/02 07:38:42;;;;;;;1.10;1.10;;;21.80;45.20;;;;;;5088302;28;20047;-42
2021/05/02 07:41:07;;;;;;;1.75;1.45;;;21.70;45.20;;;;;;5097525;28;20043;-42
2021/05/02 07:43:33;;;;;;;1.30;1.25;;;21.80;45.30;;;;;;5096829;28;20440;-42
2021/05/02 07:46:02;;;;;;;2.35;1.48;;;21.80;45.10;;;;;;5103985;28;20494;-42
2021/05/02 07:48:28;;;;;;;1.52;1.40;;;21.70;45.10;;;;;;5097274;28;20016;-41
2021/05/02 07:50:53;;;;;;;1.00;1.00;;;21.70;45.40;;;;;;5095755;28;20023;-39
2021/05/02 07:53:19;;;;;;;1.33;1.33;;;21.80;45.40;;;;;;5098127;28;20059;-43
2021/05/02 07:55:45;;;;;;;1.00;1.00;;;21.90;45.20;;;;;;5095398;28;20024;-43
2021/05/02 07:58:10;;;;;;;0.93;0.93;;;21.70;45.70;;;;;;5092051;28;20565;-40
2021/05/02 08:00:36;;;;;;;1.20;1.20;;;21.60;46.40;;;;;;5073961;28;20027;-40
2021/05/02 08:03:01;;;;;;;1.55;1.45;;;21.60;46.60;;;;;;5077275;28;20024;-43
2021/05/02 08:05:28;;;;;;;1.30;1.30;;;21.50;47.10;;;;;;5092541;28;20020;-42
2021/05/02 08:07:54;;;;;;;1.20;1.20;;;21.60;47.00;;;;;;5086710;28;20027;-43
2021/05/02 08:10:20;;;;;;;1.10;1.10;;;21.70;46.60;;;;;;5088143;28;20089;-42
2021/05/02 08:12:46;;;;;;;1.35;1.25;;;21.70;46.70;;;;;;5102046;28;20078;-43
2021/05/02 08:15:11;;;;;;;1.40;1.30;;;21.80;46.50;;;;;;5097878;28;20494;-37
2021/05/02 08:17:37;;;;;;;0.93;0.93;;;21.60;46.60;;;;;;5101137;28;20074;-42
2021/05/02 08:20:07;;;;;;;1.27;1.27;;;21.60;46.90;;;;;;5095713;28;20102;-40
2021/05/02 08:22:32;;;;;;;1.00;1.00;;;21.70;46.80;;;;;;5092796;28;20039;-43
2021/05/02 08:24:58;;;;;;;1.50;1.40;;;21.60;46.70;;;;;;5099265;28;20425;-41
2021/05/02 08:27:24;;;;;;;1.90;1.65;;;21.60;46.50;;;;;;5083808;28;20020;-43
2021/05/02 08:29:49;;;;;;;1.90;1.15;;;21.50;46.80;;;;;;5094638;28;20055;-43
2021/05/02 08:32:15;;;;;;;2.00;1.05;;;21.60;47.30;;;;;;5090626;28;20028;-44
2021/05/02 08:34:40;;;;;;;1.40;1.30;;;21.60;47.10;;;;;;5094028;28;20032;-43
2021/05/02 08:37:06;;;;;;;2.00;1.20;;;21.80;46.50;;;;;;5090009;28;20028;-41
2021/05/02 08:39:33;;;;;;;2.50;1.20;;;21.80;46.30;;;;;;5092794;28;20032;-43
2021/05/02 08:41:59;;;;;;;1.20;1.20;;;21.80;46.50;;;;;;5092299;28;20040;-44
2021/05/02 08:44:25;;;;;;;2.63;1.60;;;21.70;47.80;;;;;;5093461;28;20031;-42
2021/05/02 08:46:51;;;;;;;1.60;1.60;;;21.60;47.60;;;;;;5059509;28;20027;-43
2021/05/02 08:49:18;;;;;;;1.60;1.50;;;21.50;48.40;;;;;;5101174;28;20070;-46
2021/05/02 08:51:44;;;;;;;1.50;1.40;;;21.40;48.50;;;;;;5095925;28;20490;-42
2021/05/02 08:54:10;;;;;;;1.50;1.40;;;21.40;48.60;;;;;;5100038;28;20030;-42
2021/05/02 08:56:35;;;;;;;1.10;1.10;;;21.40;48.40;;;;;;5101144;28;20031;-44
2021/05/02 08:59:01;;;;;;;1.30;1.30;;;21.40;48.50;;;;;;5089909;28;20027;-42
2021/05/02 09:01:30;;;;;;;1.15;1.10;;;21.40;49.20;;;;;;5096086;28;20067;-39
2021/05/02 09:03:57;;;;;;;1.48;1.27;;;21.40;48.80;;;;;;5095331;28;20422;-43
2021/05/02 09:06:24;;;;;;;1.88;1.23;;;21.30;49.10;;;;;;5083263;28;20621;-41
2021/05/02 09:08:51;;;;;;;1.20;1.20;;;21.30;49.00;;;;;;5086558;28;20054;-39
2021/05/02 09:11:17;;;;;;;1.10;1.10;;;21.30;49.00;;;;;;5084384;28;20494;-42
2021/05/02 09:13:50;;;;;;;0.90;0.90;;;21.30;49.20;;;;;;5067539;28;20072;-38
2021/05/02 09:16:16;;;;;;;1.50;0.70;;;21.30;48.70;;;;;;5093321;28;20032;-41
2021/05/02 09:18:45;;;;;;;1.00;1.00;;;21.40;48.80;;;;;;5101802;28;20035;-42
2021/05/02 09:21:25;;;;;;;0.70;0.70;;;21.60;48.40;;;;;;5101369;28;20044;-41
2021/05/02 09:23:51;;;;;;;0.85;0.85;;;21.70;48.20;;;;;;5094701;28;20035;-41
2021/05/02 09:26:33;;;;;;;1.35;1.00;;;21.80;48.10;;;;;;5091988;28;20441;-41
2021/05/02 09:29:02;;;;;;;1.40;1.30;;;21.80;48.10;;;;;;5105761;28;20435;-43
2021/05/02 09:31:29;;;;;;;1.60;1.50;;;21.80;46.50;;;;;;5096744;28;20111;-41
2021/05/02 09:34:12;;;;;;;2.08;1.98;;;22.00;45.80;;;;;;5093572;28;20061;-41
2021/05/02 09:36:54;;;;;;;4.13;3.83;;;22.20;42.90;;;;;;5081852;28;20042;-43
2021/05/02 09:39:40;;;;;;;13.85;11.73;;;22.20;43.60;;;;;;5077371;28;20045;-43
2021/05/02 09:42:17;;;;;;;28.88;21.45;;;22.30;41.90;;;;;;5080686;28;20048;-42
2021/05/02 09:44:54;;;;;;;43.50;29.35;;;22.30;41.60;;;;;;5094435;28;20016;-41
2021/05/02 09:47:21;;;;;;;38.35;28.42;;;22.40;40.30;;;;;;5093673;28;20938;-41
2021/05/02 09:50:19;;;;;;;27.40;20.95;;;22.40;39.60;;;;;;5096024;28;20032;-41
2021/05/02 09:52:55;;;;;;;22.50;17.20;;;22.40;39.70;;;;;;5107905;28;20027;-43
2021/05/02 09:55:31;;;;;;;23.85;18.27;;;22.40;39.30;;;;;;5099208;28;20060;-43
2021/05/02 09:58:01;;;;;;;23.00;18.15;;;22.40;39.60;;;;;;5098360;28;20062;-43
2021/05/02 10:00:31;;;;;;;22.30;17.83;;;22.30;39.60;;;;;;5096197;28;20461;-42
2021/05/02 10:02:57;;;;;;;18.55;14.95;;;22.30;39.00;;;;;;5092804;28;20102;-42
2021/05/02 10:05:23;;;;;;;16.48;13.95;;;22.20;39.90;;;;;;5093726;28;20895;-40
2021/05/02 10:07:49;;;;;;;15.63;13.95;;;22.10;39.40;;;;;;5093462;28;20030;-40
2021/05/02 10:10:15;;;;;;;15.50;12.68;;;22.10;38.70;;;;;;5080086;28;20027;-41
2021/05/02 10:12:41;;;;;;;15.20;12.13;;;22.00;39.00;;;;;;5092956;28;20036;-42
2021/05/02 10:15:10;;;;;;;15.75;13.18;;;22.10;39.40;;;;;;5064043;28;20028;-42
2021/05/02 10:17:36;;;;;;;16.10;14.35;;;22.20;38.90;;;;;;5077565;28;20040;-42
2021/05/02 10:20:02;;;;;;;13.05;11.57;;;22.30;38.00;;;;;;5077637;28;20019;-41
2021/05/02 10:22:27;;;;;;;11.40;10.30;;;22.30;37.80;;;;;;5094817;28;20425;-40
2021/05/02 10:24:53;;;;;;;10.77;9.68;;;22.40;38.20;;;;;;5100467;28;20437;-41
2021/05/02 10:27:18;;;;;;;8.32;7.72;;;22.30;37.40;;;;;;5082369;28;20035;-41
2021/05/02 10:29:50;;;;;;;6.75;6.25;;;22.20;37.30;;;;;;4740485;28;10000642;-44
2021/05/02 10:32:19;;;;;;;5.95;5.45;;;22.00;36.80;;;;;;5070577;28;20478;-42
2021/05/02 10:34:48;;;;;;;5.70;5.20;;;21.90;37.20;;;;;;5084465;28;20024;-41
2021/05/02 10:37:23;;;;;;;5.20;4.80;;;21.90;37.90;;;;;;5101930;28;20597;-42
2021/05/02 10:40:08;;;;;;;5.38;4.97;;;21.90;38.50;;;;;;5099587;28;20024;-42
2021/05/02 10:42:33;;;;;;;;;;;22.00;38.90;;;;;;5101032;28;20104;-42
2021/05/02 10:44:59;;;;;;;4.45;4.15;;;22.00;39.00;;;;;;5100896;28;20043;-42
2021/05/02 10:47:57;;;;;;;6.53;5.00;;;21.90;39.60;;;;;;5085002;28;20077;-41
2021/05/02 10:50:26;;;;;;;4.50;4.20;;;21.70;40.40;;;;;;5057313;28;20037;-42
2021/05/02 10:53:08;;;;;;;4.65;4.25;;;21.70;40.50;;;;;;5054418;28;20512;-41
2021/05/02 10:56:00;;;;;;;4.40;4.20;;;21.70;40.90;;;;;;5058531;28;20037;-41
2021/05/02 10:58:33;;;;;;;4.22;4.00;;;21.60;40.90;;;;;;5064910;28;20543;-42
2021/05/02 11:01:02;;;;;;;3.83;3.63;;;21.60;41.10;;;;;;5059286;28;20538;-42
2021/05/02 11:03:40;;;;;;;3.47;3.28;;;21.50;41.60;;;;;;5053642;28;20037;-41
2021/05/02 11:06:12;;;;;;;3.90;3.70;;;21.40;41.80;;;;;;5060720;28;20076;-38
2021/05/02 11:08:48;;;;;;;4.43;3.92;;;21.30;42.10;;;;;;5054572;28;20075;-42
2021/05/02 11:11:47;;;;;;;6.28;3.20;;;21.40;42.50;;;;;;5038886;28;20028;-41
2021/05/02 11:14:21;;;;;;;3.78;3.38;;;21.30;42.00;;;;;;5053280;28;20044;-41
2021/05/02 11:16:56;;;;;;;3.50;3.20;;;21.30;42.30;;;;;;5056678;28;20173;-42
2021/05/02 11:19:31;;;;;;;2.92;2.83;;;21.20;41.90;;;;;;5050359;28;20118;-42
2021/05/02 11:21:56;;;;;;;2.85;2.65;;;21.20;41.90;;;;;;5057383;28;20138;-42
2021/05/02 11:24:23;;;;;;;3.83;2.70;;;21.20;41.50;;;;;;5051916;28;20035;-41
2021/05/02 11:27:07;;;;;;;2.92;2.72;;;21.00;41.40;;;;;;5089043;28;20040;-42
2021/05/02 11:32:40;;;;;;;2.85;2.72;;;21.20;42.30;;;;;;5074967;28;20004;-42
2021/05/02 11:35:10;;;;;;;2.20;2.10;;;21.30;42.20;;;;;;5095098;28;20036;-45
2021/05/02 11:37:45;;;;;;;2.35;2.15;;;21.30;42.30;;;;;;5097792;28;20055;-40
2021/05/02 11:42:58;;;;;;;2.35;1.95;;;21.40;41.20;;;;;;5090835;28;20047;-42
2021/05/02 11:45:24;;;;;;;1.92;1.83;;;21.30;42.00;;;;;;5101372;28;20034;-42
2021/05/02 11:47:50;;;;;;;1.95;1.85;;;21.40;42.20;;;;;;5103612;28;20023;-41
2021/05/02 11:50:16;;;;;;;1.60;1.50;;;21.30;41.10;;;;;;5105341;28;20042;-44
2021/05/02 11:52:49;;;;;;;1.83;1.73;;;21.30;42.30;;;;;;5098724;28;20032;-44
2021/05/02 11:55:37;;;;;;;2.20;1.70;;;21.20;41.80;;;;;;5101840;28;20054;-40
2021/05/02 11:58:13;;;;;;;1.73;1.65;;;21.20;41.80;;;;;;5085635;28;20123;-41
2021/05/02 12:00:39;;;;;;;1.58;1.48;;;21.40;41.60;;;;;;5105258;28;20072;-41
2021/05/02 12:03:05;;;;;;;2.17;1.90;;;21.40;41.70;;;;;;5100415;28;20035;-41
2021/05/02 12:05:31;;;;;;;3.42;1.70;;;21.50;42.10;;;;;;5102979;28;20441;-43
2021/05/02 12:08:07;;;;;;;1.50;1.40;;;21.60;41.80;;;;;;5102117;28;20123;-39
2021/05/02 12:10:33;;;;;;;1.58;1.48;;;21.70;41.70;;;;;;5100540;28;20071;-40
2021/05/02 12:12:58;;;;;;;2.95;1.30;;;21.70;41.80;;;;;;5108114;28;20070;-41
2021/05/02 12:15:24;;;;;;;3.20;1.35;;;21.70;41.90;;;;;;5105393;28;20588;-42
2021/05/02 12:17:52;;;;;;;1.13;1.13;;;21.80;42.30;;;;;;5100843;28;20047;-42
2021/05/02 12:20:25;;;;;;;3.50;1.95;;;21.80;42.50;;;;;;5069473;28;20078;-43
2021/05/02 12:22:51;;;;;;;3.25;1.40;;;21.90;42.30;;;;;;5088878;28;20040;-42
2021/05/02 12:25:17;;;;;;;3.33;1.33;;;21.90;42.60;;;;;;5089093;28;20143;-44
2021/05/02 12:27:58;;;;;;;1.50;1.17;;;21.90;42.40;;;;;;5065888;28;20490;-43
2021/05/02 12:30:27;;;;;;;1.17;1.00;;;21.90;42.60;;;;;;5092393;28;20675;-46
2021/05/02 12:32:54;;;;;;;1.30;1.20;;;21.80;43.20;;;;;;5092908;28;20047;-44
2021/05/02 12:35:20;;;;;;;1.80;1.27;;;21.60;43.50;;;;;;5090189;28;20048;-44
2021/05/02 12:37:46;;;;;;;1.40;1.30;;;21.60;43.80;;;;;;5075803;28;20089;-44
2021/05/02 12:40:12;;;;;;;1.80;1.27;;;21.70;43.60;;;;;;5094726;28;20056;-43
2021/05/02 12:42:38;;;;;;;3.20;1.33;;;21.80;43.50;;;;;;5094829;28;20046;-44
2021/05/02 12:45:05;;;;;;;3.88;1.20;;;21.80;43.30;;;;;;5077360;28;20513;-44
2021/05/02 12:47:31;;;;;;;1.10;1.00;;;21.80;43.30;;;;;;5092112;28;20055;-44
2021/05/02 12:50:03;;;;;;;1.05;1.00;;;21.70;43.80;;;;;;5073936;28;20040;-44
2021/05/02 12:52:36;;;;;;;1.35;1.10;;;21.80;43.70;;;;;;5088237;28;20494;-46
2021/05/02 12:55:20;;;;;;;1.52;0.90;;;22.00;43.60;;;;;;5097432;28;20035;-43
2021/05/02 12:57:52;;;;;;;1.45;1.20;;;22.20;43.30;;;;;;5093546;28;20048;-41